sensor_id;sensor_type;location;lat;lon;timestamp;pressure;altitude;pressure_sealevel;temperature;humidity
65280;BME280;51878;55.748;48.742;2023-01-08T00:00:11;99423.28;;;-25.78;83.43
65280;BME280;51878;55.748;48.742;2023-01-08T00:02:38;99369.84;;;-26.09;83.71
65280;BME280;51878;55.748;48.742;2023-01-08T00:05:05;99433.69;;;-25.69;83.69
65280;BME280;51878;55.748;48.742;2023-01-08T00:07:33;99386.16;;;-26.02;83.80
65280;BME280;51878;55.748;48.742;2023-01-08T00:10:00;99436.94;;;-25.75;83.72
65280;BME280;51878;55.748;48.742;2023-01-08T00:12:29;99304.06;;;-26.60;83.99
65280;BME280;51878;55.748;48.742;2023-01-08T00:14:55;99374.91;;;-26.12;83.85
65280;BME280;51878;55.748;48.742;2023-01-08T00:17:22;99379.34;;;-26.01;84.06
65280;BME280;51878;55.748;48.742;2023-01-08T00:19:49;99411.22;;;-25.84;84.16
65280;BME280;51878;55.748;48.742;2023-01-08T00:22:16;99404.59;;;-25.76;84.45
65280;BME280;51878;55.748;48.742;2023-01-08T00:24:43;99362.44;;;-25.98;84.07
65280;BME280;51878;55.748;48.742;2023-01-08T00:27:10;99335.94;;;-26.03;84.60
65280;BME280;51878;55.748;48.742;2023-01-08T00:29:37;99342.94;;;-25.94;84.58
65280;BME280;51878;55.748;48.742;2023-01-08T00:32:04;99354.19;;;-25.84;84.34
65280;BME280;51878;55.748;48.742;2023-01-08T00:34:34;99390.75;;;-25.46;84.48
65280;BME280;51878;55.748;48.742;2023-01-08T00:37:00;99387.41;;;-25.43;84.02
65280;BME280;51878;55.748;48.742;2023-01-08T00:39:28;99379.81;;;-25.40;84.10
65280;BME280;51878;55.748;48.742;2023-01-08T00:41:54;99386.75;;;-25.33;84.20
65280;BME280;51878;55.748;48.742;2023-01-08T00:44:21;99340.44;;;-25.50;84.16
65280;BME280;51878;55.748;48.742;2023-01-08T00:46:48;99305.94;;;-25.72;84.15
65280;BME280;51878;55.748;48.742;2023-01-08T00:49:15;99363.72;;;-25.35;84.13
65280;BME280;51878;55.748;48.742;2023-01-08T00:51:42;99319.78;;;-25.59;84.32
65280;BME280;51878;55.748;48.742;2023-01-08T00:54:10;99353.53;;;-25.33;84.68
65280;BME280;51878;55.748;48.742;2023-01-08T00:56:37;99302.75;;;-25.60;84.48
65280;BME280;51878;55.748;48.742;2023-01-08T00:59:04;99363.22;;;-25.18;85.27
65280;BME280;51878;55.748;48.742;2023-01-08T01:01:31;99340.84;;;-25.30;85.16
65280;BME280;51878;55.748;48.742;2023-01-08T01:03:58;99253.94;;;-25.76;84.73
65280;BME280;51878;55.748;48.742;2023-01-08T01:06:25;99290.16;;;-25.51;85.58
65280;BME280;51878;55.748;48.742;2023-01-08T01:08:52;99345.31;;;-25.18;85.42
65280;BME280;51878;55.748;48.742;2023-01-08T01:11:22;99361.72;;;-25.06;84.89
65280;BME280;51878;55.748;48.742;2023-01-08T01:13:50;99364.19;;;-25.09;85.54
65280;BME280;51878;55.748;48.742;2023-01-08T01:16:17;99295.53;;;-25.39;85.04
65280;BME280;51878;55.748;48.742;2023-01-08T01:18:44;99327.38;;;-25.20;85.38
65280;BME280;51878;55.748;48.742;2023-01-08T01:21:29;99357.41;;;-25.08;84.91
65280;BME280;51878;55.748;48.742;2023-01-08T01:23:59;99353.06;;;-25.12;84.70
65280;BME280;51878;55.748;48.742;2023-01-08T01:26:26;99297.78;;;-25.54;84.92
65280;BME280;51878;55.748;48.742;2023-01-08T01:28:54;99339.94;;;-25.31;84.60
65280;BME280;51878;55.748;48.742;2023-01-08T01:31:23;99348.28;;;-25.39;84.90
65280;BME280;51878;55.748;48.742;2023-01-08T01:33:50;99332.72;;;-25.52;84.88
65280;BME280;51878;55.748;48.742;2023-01-08T01:36:18;99349.06;;;-25.45;84.60
65280;BME280;51878;55.748;48.742;2023-01-08T01:38:48;99342.69;;;-25.64;84.73
65280;BME280;51878;55.748;48.742;2023-01-08T01:43:50;99358.69;;;-25.73;84.76
65280;BME280;51878;55.748;48.742;2023-01-08T01:46:23;99343.31;;;-25.76;84.35
65280;BME280;51878;55.748;48.742;2023-01-08T01:48:54;99296.59;;;-26.13;84.34
65280;BME280;51878;55.748;48.742;2023-01-08T01:51:26;99293.22;;;-26.12;84.36
65280;BME280;51878;55.748;48.742;2023-01-08T01:53:55;99343.06;;;-25.90;84.25
65280;BME280;51878;55.748;48.742;2023-01-08T01:56:22;99250.69;;;-26.51;84.08
65280;BME280;51878;55.748;48.742;2023-01-08T01:58:49;99289.34;;;-26.34;84.73
65280;BME280;51878;55.748;48.742;2023-01-08T02:01:16;99341.00;;;-26.04;84.22
65280;BME280;51878;55.748;48.742;2023-01-08T02:03:43;99324.50;;;-26.19;84.28
65280;BME280;51878;55.748;48.742;2023-01-08T02:14:24;99336.97;;;-26.33;84.83
65280;BME280;51878;55.748;48.742;2023-01-08T02:17:00;99308.41;;;-26.54;84.53
65280;BME280;51878;55.748;48.742;2023-01-08T02:19:45;99340.97;;;-26.44;84.71
65280;BME280;51878;55.748;48.742;2023-01-08T02:28:10;99195.19;;;-27.37;84.99
65280;BME280;51878;55.748;48.742;2023-01-08T02:30:37;99291.66;;;-26.81;84.67
65280;BME280;51878;55.748;48.742;2023-01-08T02:33:04;99274.28;;;-26.96;84.72
65280;BME280;51878;55.748;48.742;2023-01-08T02:35:44;99292.16;;;-26.94;84.82
65280;BME280;51878;55.748;48.742;2023-01-08T02:38:16;99323.34;;;-26.69;84.78
65280;BME280;51878;55.748;48.742;2023-01-08T02:40:59;99286.22;;;-26.95;85.01
65280;BME280;51878;55.748;48.742;2023-01-08T02:43:41;99315.22;;;-26.89;85.27
65280;BME280;51878;55.748;48.742;2023-01-08T02:46:15;99319.84;;;-26.75;85.23
65280;BME280;51878;55.748;48.742;2023-01-08T02:48:48;99323.06;;;-26.82;85.21
65280;BME280;51878;55.748;48.742;2023-01-08T02:51:27;99321.31;;;-26.84;85.23
65280;BME280;51878;55.748;48.742;2023-01-08T02:53:58;99323.75;;;-26.89;85.48
65280;BME280;51878;55.748;48.742;2023-01-08T02:56:31;99324.38;;;-26.98;85.21
65280;BME280;51878;55.748;48.742;2023-01-08T02:59:00;99337.13;;;-26.98;85.14
65280;BME280;51878;55.748;48.742;2023-01-08T03:01:29;99304.00;;;-26.98;84.75
65280;BME280;51878;55.748;48.742;2023-01-08T03:04:05;99236.22;;;-27.59;84.88
65280;BME280;51878;55.748;48.742;2023-01-08T03:06:34;99275.06;;;-27.35;84.63
65280;BME280;51878;55.748;48.742;2023-01-08T03:09:01;99326.13;;;-26.95;84.11
65280;BME280;51878;55.748;48.742;2023-01-08T03:11:36;99283.16;;;-27.15;84.27
65280;BME280;51878;55.748;48.742;2023-01-08T03:14:18;99340.75;;;-26.88;84.07
65280;BME280;51878;55.748;48.742;2023-01-08T03:16:46;99343.81;;;-27.01;84.87
65280;BME280;51878;55.748;48.742;2023-01-08T03:19:21;99355.47;;;-27.09;84.93
65280;BME280;51878;55.748;48.742;2023-01-08T03:21:50;99197.81;;;-28.00;84.03
65280;BME280;51878;55.748;48.742;2023-01-08T03:24:22;99361.44;;;-27.09;84.45
65280;BME280;51878;55.748;48.742;2023-01-08T03:26:52;99358.13;;;-27.06;84.64
65280;BME280;51878;55.748;48.742;2023-01-08T03:29:23;99310.72;;;-27.35;84.29
65280;BME280;51878;55.748;48.742;2023-01-08T03:31:57;99323.31;;;-27.39;84.59
65280;BME280;51878;55.748;48.742;2023-01-08T03:34:25;99309.69;;;-27.41;85.45
65280;BME280;51878;55.748;48.742;2023-01-08T03:36:57;99359.09;;;-27.01;85.09
65280;BME280;51878;55.748;48.742;2023-01-08T03:42:01;99362.84;;;-26.87;85.54
65280;BME280;51878;55.748;48.742;2023-01-08T03:44:31;99356.22;;;-26.80;85.88
65280;BME280;51878;55.748;48.742;2023-01-08T03:46:58;99341.63;;;-26.87;85.21
65280;BME280;51878;55.748;48.742;2023-01-08T03:49:28;99278.88;;;-27.17;85.57
65280;BME280;51878;55.748;48.742;2023-01-08T03:51:55;99345.41;;;-26.72;85.25
65280;BME280;51878;55.748;48.742;2023-01-08T03:54:25;99274.84;;;-27.07;85.47
65280;BME280;51878;55.748;48.742;2023-01-08T03:56:56;99357.41;;;-26.67;85.17
65280;BME280;51878;55.748;48.742;2023-01-08T03:59:23;99285.94;;;-27.05;84.98
65280;BME280;51878;55.748;48.742;2023-01-08T04:01:50;99313.06;;;-26.74;85.30
65280;BME280;51878;55.748;48.742;2023-01-08T04:04:17;99350.50;;;-26.72;84.40
65280;BME280;51878;55.748;48.742;2023-01-08T04:06:44;99348.16;;;-26.64;84.93
65280;BME280;51878;55.748;48.742;2023-01-08T04:09:11;99346.56;;;-26.59;84.67
65280;BME280;51878;55.748;48.742;2023-01-08T04:11:39;99364.97;;;-26.34;84.52
65280;BME280;51878;55.748;48.742;2023-01-08T04:14:06;99369.97;;;-26.40;84.61
65280;BME280;51878;55.748;48.742;2023-01-08T04:16:33;99272.03;;;-26.83;84.22
65280;BME280;51878;55.748;48.742;2023-01-08T04:19:00;99329.47;;;-26.63;83.74
65280;BME280;51878;55.748;48.742;2023-01-08T04:21:27;99319.66;;;-26.82;84.02
65280;BME280;51878;55.748;48.742;2023-01-08T04:23:54;99374.63;;;-26.22;83.37
65280;BME280;51878;55.748;48.742;2023-01-08T04:26:21;99373.78;;;-26.23;82.82
65280;BME280;51878;55.748;48.742;2023-01-08T04:28:48;99314.84;;;-26.70;83.26
65280;BME280;51878;55.748;48.742;2023-01-08T04:31:15;99314.16;;;-26.63;82.44
65280;BME280;51878;55.748;48.742;2023-01-08T04:33:42;99324.19;;;-26.71;82.62
65280;BME280;51878;55.748;48.742;2023-01-08T04:36:09;99374.91;;;-26.46;83.01
65280;BME280;51878;55.748;48.742;2023-01-08T04:38:36;99256.03;;;-27.13;82.60
65280;BME280;51878;55.748;48.742;2023-01-08T04:41:03;99370.03;;;-26.37;82.30
65280;BME280;51878;55.748;48.742;2023-01-08T04:43:31;99329.97;;;-26.78;82.10
65280;BME280;51878;55.748;48.742;2023-01-08T04:45:59;99324.03;;;-26.77;81.97
65280;BME280;51878;55.748;48.742;2023-01-08T04:48:27;99382.50;;;-26.48;82.15
65280;BME280;51878;55.748;48.742;2023-01-08T04:50:57;99375.88;;;-26.78;81.75
65280;BME280;51878;55.748;48.742;2023-01-08T04:53:24;99402.50;;;-26.66;82.15
65280;BME280;51878;55.748;48.742;2023-01-08T04:55:51;99389.63;;;-26.71;82.36
65280;BME280;51878;55.748;48.742;2023-01-08T04:58:19;99399.72;;;-26.74;82.59
65280;BME280;51878;55.748;48.742;2023-01-08T05:00:46;99404.84;;;-26.74;82.71
65280;BME280;51878;55.748;48.742;2023-01-08T05:03:13;99420.06;;;-26.77;81.95
65280;BME280;51878;55.748;48.742;2023-01-08T05:05:40;99370.66;;;-27.14;82.26
65280;BME280;51878;55.748;48.742;2023-01-08T05:08:07;99403.81;;;-27.13;81.89
65280;BME280;51878;55.748;48.742;2023-01-08T05:10:34;99432.22;;;-26.99;83.06
65280;BME280;51878;55.748;48.742;2023-01-08T05:13:01;99392.91;;;-27.07;82.16
65280;BME280;51878;55.748;48.742;2023-01-08T05:15:28;99417.84;;;-26.97;81.89
65280;BME280;51878;55.748;48.742;2023-01-08T05:18:13;99434.22;;;-26.87;82.44
65280;BME280;51878;55.748;48.742;2023-01-08T05:20:40;99443.50;;;-26.90;82.30
65280;BME280;51878;55.748;48.742;2023-01-08T05:23:07;99333.09;;;-27.55;82.12
65280;BME280;51878;55.748;48.742;2023-01-08T05:25:34;99319.94;;;-27.70;82.65
65280;BME280;51878;55.748;48.742;2023-01-08T05:28:01;99414.66;;;-27.21;82.68
65280;BME280;51878;55.748;48.742;2023-01-08T05:30:28;99455.88;;;-26.73;81.69
65280;BME280;51878;55.748;48.742;2023-01-08T05:32:55;99415.66;;;-27.15;81.54
65280;BME280;51878;55.748;48.742;2023-01-08T05:35:22;99401.16;;;-27.17;81.37
65280;BME280;51878;55.748;48.742;2023-01-08T05:37:49;99452.91;;;-26.88;81.56
65280;BME280;51878;55.748;48.742;2023-01-08T05:40:17;99479.63;;;-26.75;82.06
65280;BME280;51878;55.748;48.742;2023-01-08T05:42:44;99473.16;;;-26.62;81.30
65280;BME280;51878;55.748;48.742;2023-01-08T05:45:11;99382.88;;;-26.33;79.32
65280;BME280;51878;55.748;48.742;2023-01-08T05:47:38;99462.25;;;-25.07;76.84
65280;BME280;51878;55.748;48.742;2023-01-08T05:50:06;99462.81;;;-24.79;75.89
65280;BME280;51878;55.748;48.742;2023-01-08T05:52:33;99473.28;;;-25.09;74.11
65280;BME280;51878;55.748;48.742;2023-01-08T05:55:00;99421.63;;;-25.76;74.40
65280;BME280;51878;55.748;48.742;2023-01-08T05:57:29;99433.22;;;-24.65;73.67
65280;BME280;51878;55.748;48.742;2023-01-08T05:59:56;99460.25;;;-23.21;71.02
65280;BME280;51878;55.748;48.742;2023-01-08T06:02:23;99432.50;;;-23.48;69.07
65280;BME280;51878;55.748;48.742;2023-01-08T06:04:50;99468.94;;;-22.33;66.29
65280;BME280;51878;55.748;48.742;2023-01-08T06:07:17;99473.69;;;-21.83;63.78
65280;BME280;51878;55.748;48.742;2023-01-08T06:09:44;99445.97;;;-20.91;60.75
65280;BME280;51878;55.748;48.742;2023-01-08T06:12:11;99493.38;;;-20.29;57.04
65280;BME280;51878;55.748;48.742;2023-01-08T06:14:38;99498.38;;;-20.75;56.63
65280;BME280;51878;55.748;48.742;2023-01-08T06:17:07;99470.06;;;-20.70;56.82
65280;BME280;51878;55.748;48.742;2023-01-08T06:19:34;99456.34;;;-22.05;57.75
65280;BME280;51878;55.748;48.742;2023-01-08T06:22:01;99475.38;;;-22.70;60.55
65280;BME280;51878;55.748;48.742;2023-01-08T06:24:28;99470.78;;;-22.99;61.93
65280;BME280;51878;55.748;48.742;2023-01-08T06:26:56;99517.81;;;-23.58;63.69
65280;BME280;51878;55.748;48.742;2023-01-08T06:29:23;99518.81;;;-24.02;65.48
65280;BME280;51878;55.748;48.742;2023-01-08T06:31:50;99495.94;;;-24.40;66.72
65280;BME280;51878;55.748;48.742;2023-01-08T06:34:17;99517.78;;;-24.58;68.53
65280;BME280;51878;55.748;48.742;2023-01-08T06:36:44;99470.53;;;-24.77;69.86
65280;BME280;51878;55.748;48.742;2023-01-08T06:39:11;99507.34;;;-24.69;69.52
65280;BME280;51878;55.748;48.742;2023-01-08T06:41:39;99497.56;;;-24.89;69.54
65280;BME280;51878;55.748;48.742;2023-01-08T06:44:06;99513.91;;;-24.82;70.99
65280;BME280;51878;55.748;48.742;2023-01-08T06:46:33;99443.78;;;-25.36;70.90
65280;BME280;51878;55.748;48.742;2023-01-08T06:49:06;99525.59;;;-24.93;70.90
65280;BME280;51878;55.748;48.742;2023-01-08T06:51:34;99547.38;;;-24.73;70.96
65280;BME280;51878;55.748;48.742;2023-01-08T06:54:04;99495.75;;;-24.94;72.08
65280;BME280;51878;55.748;48.742;2023-01-08T06:56:34;99548.03;;;-24.82;72.74
65280;BME280;51878;55.748;48.742;2023-01-08T06:59:18;99561.75;;;-25.16;72.52
65280;BME280;51878;55.748;48.742;2023-01-08T07:01:45;99502.03;;;-25.21;72.39
65280;BME280;51878;55.748;48.742;2023-01-08T07:04:12;99566.69;;;-24.86;73.14
65280;BME280;51878;55.748;48.742;2023-01-08T07:06:39;99506.88;;;-24.92;73.82
65280;BME280;51878;55.748;48.742;2023-01-08T07:09:06;99554.63;;;-24.50;72.79
65280;BME280;51878;55.748;48.742;2023-01-08T07:11:33;99556.84;;;-24.67;73.20
65280;BME280;51878;55.748;48.742;2023-01-08T07:14:00;99562.59;;;-24.35;72.78
65280;BME280;51878;55.748;48.742;2023-01-08T07:16:27;99557.69;;;-24.67;72.91
65280;BME280;51878;55.748;48.742;2023-01-08T07:18:54;99513.25;;;-25.13;73.06
65280;BME280;51878;55.748;48.742;2023-01-08T07:21:24;99570.88;;;-24.89;73.65
65280;BME280;51878;55.748;48.742;2023-01-08T07:23:51;99568.56;;;-24.78;72.85
65280;BME280;51878;55.748;48.742;2023-01-08T07:26:18;99571.63;;;-24.95;73.47
65280;BME280;51878;55.748;48.742;2023-01-08T07:28:45;99538.41;;;-25.33;73.67
65280;BME280;51878;55.748;48.742;2023-01-08T07:31:12;99544.00;;;-24.70;74.00
65280;BME280;51878;55.748;48.742;2023-01-08T07:33:39;99521.75;;;-24.74;74.03
65280;BME280;51878;55.748;48.742;2023-01-08T07:36:07;99592.63;;;-24.26;73.54
65280;BME280;51878;55.748;48.742;2023-01-08T07:38:34;99440.34;;;-24.94;73.54
65280;BME280;51878;55.748;48.742;2023-01-08T07:41:04;99586.78;;;-24.19;74.10
65280;BME280;51878;55.748;48.742;2023-01-08T07:44:17;99508.19;;;-24.69;73.07
65280;BME280;51878;55.748;48.742;2023-01-08T07:46:44;99562.47;;;-24.41;74.42
65280;BME280;51878;55.748;48.742;2023-01-08T07:49:11;99588.47;;;-24.21;73.67
65280;BME280;51878;55.748;48.742;2023-01-08T07:51:38;99556.31;;;-24.52;73.17
65280;BME280;51878;55.748;48.742;2023-01-08T07:54:05;99556.88;;;-24.66;73.27
65280;BME280;51878;55.748;48.742;2023-01-08T07:56:33;99578.00;;;-24.32;73.90
65280;BME280;51878;55.748;48.742;2023-01-08T07:59:00;99578.63;;;-24.00;74.10
65280;BME280;51878;55.748;48.742;2023-01-08T08:01:27;99525.22;;;-24.25;72.65
65280;BME280;51878;55.748;48.742;2023-01-08T08:03:54;99526.06;;;-24.25;72.70
65280;BME280;51878;55.748;48.742;2023-01-08T08:06:24;99548.94;;;-24.34;72.68
65280;BME280;51878;55.748;48.742;2023-01-08T08:08:51;99601.59;;;-24.04;72.58
65280;BME280;51878;55.748;48.742;2023-01-08T08:11:20;99564.66;;;-24.61;73.36
65280;BME280;51878;55.748;48.742;2023-01-08T08:13:57;99598.09;;;-23.59;72.99
65280;BME280;51878;55.748;48.742;2023-01-08T08:16:25;99534.31;;;-24.41;72.75
65280;BME280;51878;55.748;48.742;2023-01-08T08:18:53;99561.50;;;-24.02;72.80
65280;BME280;51878;55.748;48.742;2023-01-08T08:21:20;99607.56;;;-23.55;73.20
65280;BME280;51878;55.748;48.742;2023-01-08T08:23:51;99599.31;;;-23.89;72.85
65280;BME280;51878;55.748;48.742;2023-01-08T08:26:18;99576.88;;;-24.01;72.80
65280;BME280;51878;55.748;48.742;2023-01-08T08:28:46;99552.06;;;-24.05;72.36
65280;BME280;51878;55.748;48.742;2023-01-08T08:31:13;99585.47;;;-23.48;71.23
65280;BME280;51878;55.748;48.742;2023-01-08T08:33:41;99592.78;;;-23.20;71.48
65280;BME280;51878;55.748;48.742;2023-01-08T08:36:08;99620.63;;;-23.41;71.60
65280;BME280;51878;55.748;48.742;2023-01-08T08:38:36;99611.88;;;-23.01;70.58
65280;BME280;51878;55.748;48.742;2023-01-08T08:41:06;99615.03;;;-22.59;70.51
65280;BME280;51878;55.748;48.742;2023-01-08T08:43:33;99569.19;;;-22.93;69.98
65280;BME280;51878;55.748;48.742;2023-01-08T08:46:01;99538.31;;;-23.02;69.03
65280;BME280;51878;55.748;48.742;2023-01-08T08:48:28;99533.28;;;-22.91;68.58
65280;BME280;51878;55.748;48.742;2023-01-08T08:50:55;99614.63;;;-22.20;67.66
65280;BME280;51878;55.748;48.742;2023-01-08T08:53:24;99571.25;;;-22.70;67.63
65280;BME280;51878;55.748;48.742;2023-01-08T08:55:53;99550.03;;;-23.19;68.52
65280;BME280;51878;55.748;48.742;2023-01-08T08:58:20;99573.44;;;-22.95;68.87
65280;BME280;51878;55.748;48.742;2023-01-08T09:00:49;99566.78;;;-22.12;67.02
65280;BME280;51878;55.748;48.742;2023-01-08T09:03:16;99612.94;;;-22.22;66.26
65280;BME280;51878;55.748;48.742;2023-01-08T09:05:43;99525.41;;;-22.39;67.69
65280;BME280;51878;55.748;48.742;2023-01-08T09:08:11;99608.38;;;-21.67;66.46
65280;BME280;51878;55.748;48.742;2023-01-08T09:10:39;99600.22;;;-21.20;65.35
65280;BME280;51878;55.748;48.742;2023-01-08T09:13:08;99562.19;;;-21.58;64.65
65280;BME280;51878;55.748;48.742;2023-01-08T09:15:40;99602.63;;;-21.38;65.46
65280;BME280;51878;55.748;48.742;2023-01-08T09:18:07;99623.28;;;-22.13;65.24
65280;BME280;51878;55.748;48.742;2023-01-08T09:20:34;99610.94;;;-21.70;67.20
65280;BME280;51878;55.748;48.742;2023-01-08T09:23:02;99616.91;;;-22.47;67.12
65280;BME280;51878;55.748;48.742;2023-01-08T09:25:29;99572.13;;;-22.66;67.15
65280;BME280;51878;55.748;48.742;2023-01-08T09:28:05;99613.41;;;-22.53;67.17
65280;BME280;51878;55.748;48.742;2023-01-08T09:30:33;99635.91;;;-22.35;67.29
65280;BME280;51878;55.748;48.742;2023-01-08T09:33:01;99624.56;;;-22.49;67.98
65280;BME280;51878;55.748;48.742;2023-01-08T09:35:30;99608.66;;;-22.84;68.41
65280;BME280;51878;55.748;48.742;2023-01-08T09:37:58;99618.47;;;-22.57;67.10
65280;BME280;51878;55.748;48.742;2023-01-08T09:40:30;99632.22;;;-21.80;68.27
65280;BME280;51878;55.748;48.742;2023-01-08T09:43:00;99629.72;;;-22.47;67.92
65280;BME280;51878;55.748;48.742;2023-01-08T09:45:30;99580.72;;;-22.64;68.51
65280;BME280;51878;55.748;48.742;2023-01-08T09:48:00;99637.25;;;-22.60;68.51
65280;BME280;51878;55.748;48.742;2023-01-08T09:50:28;99636.47;;;-22.56;69.47
65280;BME280;51878;55.748;48.742;2023-01-08T09:52:59;99647.63;;;-22.54;70.73
65280;BME280;51878;55.748;48.742;2023-01-08T09:55:29;99562.25;;;-23.03;70.32
65280;BME280;51878;55.748;48.742;2023-01-08T09:57:59;99602.28;;;-22.52;70.97
65280;BME280;51878;55.748;48.742;2023-01-08T10:00:30;99596.63;;;-22.88;70.70
65280;BME280;51878;55.748;48.742;2023-01-08T10:02:59;99613.78;;;-22.87;71.15
65280;BME280;51878;55.748;48.742;2023-01-08T10:05:26;99657.28;;;-22.94;71.37
65280;BME280;51878;55.748;48.742;2023-01-08T10:07:54;99640.38;;;-22.79;71.29
65280;BME280;51878;55.748;48.742;2023-01-08T10:10:25;99667.41;;;-23.04;71.89
65280;BME280;51878;55.748;48.742;2023-01-08T10:12:53;99649.06;;;-22.71;73.03
65280;BME280;51878;55.748;48.742;2023-01-08T10:15:21;99652.06;;;-23.03;72.91
65280;BME280;51878;55.748;48.742;2023-01-08T10:18:06;99651.00;;;-23.14;72.88
65280;BME280;51878;55.748;48.742;2023-01-08T10:20:34;99653.59;;;-22.55;74.06
65280;BME280;51878;55.748;48.742;2023-01-08T10:23:27;99667.34;;;-22.51;72.19
65280;BME280;51878;55.748;48.742;2023-01-08T10:26:00;99664.00;;;-22.45;71.68
65280;BME280;51878;55.748;48.742;2023-01-08T10:28:32;99663.09;;;-22.49;72.02
65280;BME280;51878;55.748;48.742;2023-01-08T10:31:06;99619.22;;;-22.64;72.86
65280;BME280;51878;55.748;48.742;2023-01-08T10:33:38;99677.25;;;-22.76;72.77
65280;BME280;51878;55.748;48.742;2023-01-08T10:36:09;99608.06;;;-23.27;73.96
65280;BME280;51878;55.748;48.742;2023-01-08T10:38:51;99664.53;;;-22.66;73.07
65280;BME280;51878;55.748;48.742;2023-01-08T10:41:21;99509.00;;;-23.77;74.06
65280;BME280;51878;55.748;48.742;2023-01-08T10:43:57;99618.06;;;-22.85;73.80
65280;BME280;51878;55.748;48.742;2023-01-08T10:46:29;99673.75;;;-22.81;74.52
65280;BME280;51878;55.748;48.742;2023-01-08T10:49:00;99659.88;;;-22.92;75.92
65280;BME280;51878;55.748;48.742;2023-01-08T10:51:29;99567.28;;;-23.09;75.57
65280;BME280;51878;55.748;48.742;2023-01-08T10:54:12;99669.50;;;-22.77;76.11
65280;BME280;51878;55.748;48.742;2023-01-08T10:56:42;99623.97;;;-22.90;75.66
65280;BME280;51878;55.748;48.742;2023-01-08T10:59:20;99624.09;;;-23.38;75.67
65280;BME280;51878;55.748;48.742;2023-01-08T11:01:56;99655.53;;;-22.96;76.42
65280;BME280;51878;55.748;48.742;2023-01-08T11:04:34;99645.13;;;-23.07;75.92
65280;BME280;51878;55.748;48.742;2023-01-08T11:07:04;99689.69;;;-23.02;76.44
65280;BME280;51878;55.748;48.742;2023-01-08T11:09:44;99700.66;;;-23.10;76.72
65280;BME280;51878;55.748;48.742;2023-01-08T11:12:30;99706.72;;;-22.51;76.75
65280;BME280;51878;55.748;48.742;2023-01-08T11:14:59;99693.03;;;-22.49;75.74
65280;BME280;51878;55.748;48.742;2023-01-08T11:17:26;99718.69;;;-22.51;75.55
65280;BME280;51878;55.748;48.742;2023-01-08T11:23:03;99648.63;;;-23.03;75.84
65280;BME280;51878;55.748;48.742;2023-01-08T11:25:30;99584.16;;;-23.77;77.05
65280;BME280;51878;55.748;48.742;2023-01-08T11:28:01;99693.00;;;-23.09;77.12
65280;BME280;51878;55.748;48.742;2023-01-08T11:30:31;99707.09;;;-23.34;77.32
65280;BME280;51878;55.748;48.742;2023-01-08T11:33:20;99708.22;;;-23.18;77.91
65280;BME280;51878;55.748;48.742;2023-01-08T11:35:53;99713.69;;;-23.45;77.64
65280;BME280;51878;55.748;48.742;2023-01-08T11:38:25;99703.44;;;-23.45;78.77
65280;BME280;51878;55.748;48.742;2023-01-08T11:46:56;99734.00;;;-23.12;79.88
65280;BME280;51878;55.748;48.742;2023-01-08T12:03:51;99752.03;;;-23.53;82.24
65280;BME280;51878;55.748;48.742;2023-01-08T12:09:43;99759.06;;;-23.43;82.24
65280;BME280;51878;55.748;48.742;2023-01-08T12:15:23;99766.50;;;-23.55;82.25
65280;BME280;51878;55.748;48.742;2023-01-08T12:21:00;99790.41;;;-23.56;81.90
65280;BME280;51878;55.748;48.742;2023-01-08T12:26:06;99784.09;;;-23.73;83.32
65280;BME280;51878;55.748;48.742;2023-01-08T12:37:38;99807.97;;;-23.33;81.71
65280;BME280;51878;55.748;48.742;2023-01-08T12:42:43;99799.16;;;-23.87;83.62
65280;BME280;51878;55.748;48.742;2023-01-08T12:45:22;99716.56;;;-24.57;83.59
65280;BME280;51878;55.748;48.742;2023-01-08T12:48:15;99818.44;;;-24.05;83.82
65280;BME280;51878;55.748;48.742;2023-01-08T12:51:03;99766.25;;;-24.48;84.50
65280;BME280;51878;55.748;48.742;2023-01-08T13:04:50;99833.34;;;-24.61;84.46
65280;BME280;51878;55.748;48.742;2023-01-08T13:07:28;99842.16;;;-24.50;84.93
65280;BME280;51878;55.748;48.742;2023-01-08T13:10:03;99756.91;;;-25.15;85.10
65280;BME280;51878;55.748;48.742;2023-01-08T13:12:36;99838.13;;;-24.73;85.36
65280;BME280;51878;55.748;48.742;2023-01-08T13:15:06;99806.63;;;-25.06;85.99
65280;BME280;51878;55.748;48.742;2023-01-08T13:17:39;99857.56;;;-24.82;85.20
65280;BME280;51878;55.748;48.742;2023-01-08T13:20:06;99870.34;;;-24.82;85.71
65280;BME280;51878;55.748;48.742;2023-01-08T13:22:35;99817.72;;;-25.05;84.85
65280;BME280;51878;55.748;48.742;2023-01-08T13:27:53;99843.53;;;-24.96;85.70
65280;BME280;51878;55.748;48.742;2023-01-08T13:30:38;99878.50;;;-24.95;85.47
65280;BME280;51878;55.748;48.742;2023-01-08T13:38:42;99850.34;;;-25.28;85.23
65280;BME280;51878;55.748;48.742;2023-01-08T13:41:31;99830.81;;;-25.56;84.91
65280;BME280;51878;55.748;48.742;2023-01-08T13:46:40;99835.81;;;-25.61;85.37
65280;BME280;51878;55.748;48.742;2023-01-08T13:49:19;99831.56;;;-25.60;85.17
65280;BME280;51878;55.748;48.742;2023-01-08T13:51:49;99843.16;;;-25.70;85.23
65280;BME280;51878;55.748;48.742;2023-01-08T13:54:19;99843.28;;;-25.67;84.58
65280;BME280;51878;55.748;48.742;2023-01-08T13:56:52;99883.91;;;-25.46;84.46
65280;BME280;51878;55.748;48.742;2023-01-08T14:07:51;99906.75;;;-25.51;85.07
65280;BME280;51878;55.748;48.742;2023-01-08T14:10:23;99912.91;;;-25.74;84.99
65280;BME280;51878;55.748;48.742;2023-01-08T14:12:51;99907.38;;;-25.87;85.00
65280;BME280;51878;55.748;48.742;2023-01-08T14:15:22;99929.72;;;-25.81;85.13
65280;BME280;51878;55.748;48.742;2023-01-08T14:17:54;99904.00;;;-25.87;85.32
65280;BME280;51878;55.748;48.742;2023-01-08T14:20:30;99923.91;;;-26.04;85.11
65280;BME280;51878;55.748;48.742;2023-01-08T14:23:12;99888.53;;;-26.19;85.88
65280;BME280;51878;55.748;48.742;2023-01-08T14:25:48;99919.75;;;-26.00;85.93
65280;BME280;51878;55.748;48.742;2023-01-08T14:28:21;99779.16;;;-26.89;85.57
65280;BME280;51878;55.748;48.742;2023-01-08T14:30:52;99871.56;;;-26.17;85.55